Santos Dumont Airport
SBRJ : now visible

Airfield :











YOU CAN JOIN US ON...

 
LOGIN :

Register | Disclaimer

   EN    FR    IT 

 









Legend :    VFR   Marginal VFR   IFR   Intensive IFR   Very Intensive IFR
Visi :
Ceiling :
>= 8 km
>= 3000ft
5 to 8 km
1000 to 3000 ft
1500m to 5 km
500 to 1000 ft
800 to 1500m
200 to 500 ft
< 800m
< 200 ft
Symbols :   Thunderstorms  Fog  Heavy snow  Heavy precipitations  Wind > 20 kt






- Airport Elevation : 11 ft
- IATA code : SDU


SBRJ - Santos Dumont

CURRENT METAR :
  • 222100Z 12013KT 9999 FEW025 SCT050 23/18 Q1018

EXPIRED METARs :
  • 222000Z 14012KT 9999 FEW020 SCT040 BKN070 24/17 Q1018
  • 221900Z 14015KT 9999 FEW020 SCT070 24/19 Q1017

TAF TAF SBRJ
Valid from the 22 at 18:00 until the 23 at 06:00 UTC


221500Z 2218/2306 16015KT 8000 SCT017 BKN027 TX26/2218Z TN23/2302Z
PROB40
TEMPO 2218/2221 15015G25KT
BECMG 2221/2223 13010KT 9999 SCT020 BKN035
BECMG 2301/2303 34005KT SCT025 RMK PHN
SBCW FIR / South America



MET'MAP, your aeronautical weather chart ! - Copyright ORBIFLY December 2007 - Disclaimer

ORBIFLY MET'MAP TEAM :

Programming & Development : Alexandra Zaïnal
Concept & original design : Baudouin d'Aumeries
Assistance for programming : Marc-Olivier Méhu
Technical & hardware support : Manuel Goepfert

Contact : metmap@orbifly.com




SOURCES & CREDITS :

   NOAA       Earth
Advisory